Time;durP1;ratioP1;P1;durP2;ratioP2;P2;SDS_P1;SDS_P2;PMS_P1;PMS_P2;Temp;Humidity;BMP_temperature;BMP_pressure;BME280_temperature;BME280_humidity;BME280_pressure;Samples;Min_cycle;Max_cycle;Signal;HPM_P1;HPM_P2
2021/01/30 00:00:53;;;;;;;1.30;1.25;;;1.30;97.00;;;5.32;78.29;100199.13;5041744;27;97161;-71
2021/01/30 00:03:21;;;;;;;1.38;1.27;;;1.30;97.00;;;5.33;77.88;100202.59;5041711;27;96761;-71
2021/01/30 00:05:48;;;;;;;1.90;1.77;;;1.30;97.00;;;5.28;78.53;100210.59;5057009;27;98053;-71
2021/01/30 00:08:17;;;;;;;3.45;2.70;;;1.30;97.00;;;5.31;77.97;100221.44;5038377;27;97750;-71
2021/01/30 00:10:45;;;;;;;1.63;1.52;;;1.20;97.00;;;5.24;77.98;100218.31;5047546;27;96899;-71
2021/01/30 00:13:14;;;;;;;1.80;1.48;;;1.20;97.00;;;5.26;78.15;100212.75;5035679;27;97112;-71
2021/01/30 00:15:41;;;;;;;3.25;1.45;;;1.20;97.00;;;5.24;77.92;100217.53;5040583;27;98135;-71
2021/01/30 00:18:09;;;;;;;6.50;2.85;;;1.20;97.00;;;5.25;78.05;100222.56;5041354;27;96709;-71
2021/01/30 00:20:39;;;;;;;1.80;1.70;;;1.20;97.00;;;5.24;77.73;100233.44;5041916;27;96944;-71
2021/01/30 00:23:09;;;;;;;5.15;1.73;;;1.20;97.00;;;5.21;78.61;100245.44;5057504;27;98448;-71
2021/01/30 00:25:38;;;;;;;6.28;2.50;;;1.20;97.00;;;5.21;77.60;100247.28;5057607;27;97050;-71
2021/01/30 00:28:08;;;;;;;2.35;2.08;;;1.10;97.00;;;5.19;77.80;100244.94;5044837;27;96885;-71
2021/01/30 00:30:37;;;;;;;1.27;1.20;;;1.10;97.00;;;5.16;77.90;100237.53;5052550;27;96886;-71
2021/01/30 00:33:08;;;;;;;1.50;1.40;;;1.10;97.00;;;5.13;78.13;100259.31;5039975;27;98001;-71
2021/01/30 00:35:37;;;;;;;1.77;1.67;;;1.00;97.00;;;5.12;77.79;100251.63;5041100;27;96804;-71
2021/01/30 00:38:06;;;;;;;7.47;2.78;;;1.10;97.10;;;5.19;77.81;100258.22;5039665;27;96881;-71
2021/01/30 00:40:34;;;;;;;2.67;1.40;;;1.10;97.10;;;5.17;77.86;100257.69;5039053;27;96750;-71
2021/01/30 00:43:05;;;;;;;1.88;1.30;;;1.10;97.10;;;5.18;78.16;100266.44;5043093;27;96749;-71
2021/01/30 00:45:33;;;;;;;4.00;2.70;;;1.00;97.10;;;5.12;78.06;100273.66;5038400;27;97734;-71
2021/01/30 00:48:04;;;;;;;1.17;1.05;;;1.00;97.10;;;5.15;78.27;100265.16;5041682;27;97374;-71
2021/01/30 00:50:33;;;;;;;1.92;1.73;;;1.00;97.10;;;5.12;77.72;100260.41;5033546;27;97214;-71
2021/01/30 00:53:04;;;;;;;1.50;1.40;;;1.00;97.10;;;5.09;78.28;100263.56;5042442;27;96751;-71
2021/01/30 00:55:40;;;;;;;6.68;1.70;;;1.00;97.10;;;5.07;78.03;100273.69;5039238;27;96863;-71
2021/01/30 00:58:07;;;;;;;1.35;0.82;;;1.00;97.10;;;5.12;77.92;100267.56;5042359;27;96687;-71
2021/01/30 01:00:36;;;;;;;1.30;1.17;;;1.00;97.10;;;5.12;77.67;100267.56;5045327;27;96860;-71
2021/01/30 01:03:13;;;;;;;0.40;0.40;;;1.00;97.10;;;5.12;77.85;100260.41;5059585;27;97288;-71
2021/01/30 01:05:53;;;;;;;1.63;1.25;;;0.90;97.10;;;5.08;77.84;100269.19;5047311;27;98924;-71
2021/01/30 01:08:21;;;;;;;0.25;0.25;;;1.00;97.10;;;5.09;78.08;100284.81;5059670;27;96814;-71
2021/01/30 01:10:48;;;;;;;2.20;1.67;;;0.90;97.10;;;5.08;77.70;100285.88;5041866;27;97143;-71
2021/01/30 01:13:16;;;;;;;1.13;1.02;;;0.90;97.10;;;5.05;78.04;100289.09;5042014;27;98007;-71
2021/01/30 01:15:45;;;;;;;4.07;2.05;;;0.90;97.10;;;5.05;77.63;100293.63;5051478;27;97800;-71
2021/01/30 01:18:14;;;;;;;1.00;1.00;;;0.90;97.10;;;5.03;78.15;100298.41;5057715;27;96698;-71
2021/01/30 01:20:42;;;;;;;3.00;1.25;;;0.90;97.10;;;5.01;78.33;100304.00;5042066;27;97253;-71
2021/01/30 01:23:10;;;;;;;1.75;1.02;;;0.90;97.10;;;5.01;78.36;100303.22;5043888;27;97461;-71
2021/01/30 01:25:38;;;;;;;0.85;0.80;;;0.90;97.10;;;5.01;78.07;100301.34;5049469;27;97760;-71
2021/01/30 01:28:06;;;;;;;2.22;2.00;;;0.90;97.10;;;4.97;77.80;100302.19;5040810;27;96972;-71
2021/01/30 01:30:34;;;;;;;0.47;0.45;;;0.90;97.10;;;4.97;78.23;100302.97;5041442;27;96892;-71
2021/01/30 01:33:04;;;;;;;4.60;1.65;;;0.90;97.10;;;4.96;78.47;100312.00;5042297;27;98107;-71
2021/01/30 01:35:34;;;;;;;5.68;2.42;;;0.90;97.10;;;4.95;78.48;100315.72;5041835;27;97604;-71
2021/01/30 01:38:04;;;;;;;2.60;2.35;;;0.90;97.10;;;4.97;78.29;100318.09;5046159;27;97540;-71
2021/01/30 01:40:37;;;;;;;1.95;1.10;;;0.90;97.20;;;4.97;78.49;100326.84;5038384;27;97296;-71
2021/01/30 01:43:13;;;;;;;1.55;1.20;;;0.90;97.20;;;4.94;78.22;100335.38;5043396;27;96858;-71
2021/01/30 01:45:42;;;;;;;0.63;0.50;;;0.90;97.20;;;4.91;78.46;100329.81;5042656;27;97575;-71
2021/01/30 01:48:22;;;;;;;1.20;0.95;;;0.90;97.10;;;4.91;78.82;100341.22;5045374;27;96879;-71
2021/01/30 01:50:53;;;;;;;0.80;0.80;;;0.90;97.10;;;4.89;78.43;100338.06;5041493;27;97052;-71
2021/01/30 01:53:27;;;;;;;2.17;1.48;;;0.90;97.10;;;4.87;78.16;100334.88;5042901;27;96752;-71
2021/01/30 01:56:05;;;;;;;1.60;1.23;;;0.90;97.20;;;4.82;78.77;100337.56;5026650;27;97667;-71
2021/01/30 01:58:39;;;;;;;1.48;1.38;;;0.90;97.10;;;4.84;78.54;100343.41;5040907;27;97197;-71
2021/01/30 02:01:09;;;;;;;1.38;1.23;;;0.90;97.10;;;4.87;78.58;100339.38;5040834;27;97164;-71
2021/01/30 02:03:40;;;;;;;0.40;0.40;;;0.90;97.10;;;4.88;78.56;100340.97;5038352;27;97017;-71
2021/01/30 02:06:09;;;;;;;0.95;0.95;;;0.90;97.10;;;4.87;79.01;100342.84;5049369;27;96770;-71
2021/01/30 02:08:37;;;;;;;0.88;0.88;;;0.90;97.20;;;4.86;79.05;100349.22;5041150;27;96647;-71
2021/01/30 02:11:05;;;;;;;1.17;0.75;;;0.90;97.20;;;4.90;78.78;100339.63;5042484;27;96778;-71
2021/01/30 02:13:40;;;;;;;0.55;0.55;;;0.80;97.10;;;4.96;78.46;100349.16;5042485;27;97834;-70
2021/01/30 02:16:31;;;;;;;1.08;0.95;;;0.90;97.20;;;4.92;78.56;100345.47;5049279;27;96737;-71
2021/01/30 02:20:00;;;;;;;1.27;1.17;;;0.90;97.20;;;4.96;78.37;100349.16;5042204;27;96777;-70
2021/01/30 02:23:48;;;;;;;1.30;1.20;;;0.90;97.20;;;4.95;78.17;100347.56;5049247;27;97744;-70
2021/01/30 02:27:12;;;;;;;0.45;0.45;;;0.90;97.20;;;4.87;78.25;100358.75;5042755;27;96718;-70
2021/01/30 02:30:33;;;;;;;1.00;1.00;;;0.90;97.20;;;5.03;77.79;100365.56;5046605;27;96813;-70
2021/01/30 02:33:52;;;;;;;0.25;0.25;;;0.90;97.20;;;5.05;77.91;100362.66;5056500;27;96758;-70
2021/01/30 02:36:44;;;;;;;0.45;0.45;;;0.90;97.20;;;4.99;78.03;100361.09;5042471;27;97085;-70
2021/01/30 02:39:21;;;;;;;0.65;0.65;;;0.90;97.20;;;5.03;78.47;100370.09;5042647;27;97109;-71
2021/01/30 02:42:03;;;;;;;0.40;0.40;;;0.90;97.20;;;5.05;77.78;100373.28;5042058;27;96715;-71
2021/01/30 02:44:37;;;;;;;0.32;0.32;;;0.90;97.20;;;5.05;78.60;100376.69;5039706;27;97193;-71
2021/01/30 02:47:11;;;;;;;1.50;0.88;;;0.90;97.20;;;5.09;78.01;100382.28;5042230;27;97404;-71
2021/01/30 02:49:49;;;;;;;0.77;0.77;;;0.90;97.30;;;5.06;78.07;100375.63;5045129;27;96795;-71
2021/01/30 02:52:23;;;;;;;1.75;1.02;;;0.90;97.20;;;5.07;78.14;100366.59;5042490;27;97718;-71
2021/01/30 02:54:56;;;;;;;0.55;0.55;;;0.90;97.20;;;5.11;77.52;100372.16;5038387;27;96904;-71
2021/01/30 02:57:26;;;;;;;0.95;0.82;;;0.90;97.20;;;5.05;78.02;100376.69;5041573;27;96974;-71
2021/01/30 02:59:59;;;;;;;0.98;0.88;;;0.90;97.20;;;5.02;78.34;100385.22;5039516;27;96731;-71
2021/01/30 03:02:31;;;;;;;0.30;0.30;;;0.90;97.20;;;5.11;77.84;100382.78;5040756;27;97668;-71
2021/01/30 03:05:05;;;;;;;0.38;0.38;;;0.90;97.20;;;5.05;77.93;100384.66;5057478;27;96847;-71
2021/01/30 03:08:02;;;;;;;0.25;0.25;;;0.90;97.20;;;5.03;77.67;100376.19;5041526;27;96687;-71
2021/01/30 03:10:37;;;;;;;1.27;1.17;;;0.90;97.50;;;5.04;78.06;100382.31;5040788;27;98206;-71
2021/01/30 03:13:15;;;;;;;0.60;0.60;;;0.90;97.20;;;5.11;77.82;100393.41;5028857;27;97848;-71
2021/01/30 03:15:53;;;;;;;1.35;1.27;;;0.90;97.20;;;5.14;77.47;100391.00;5044985;27;96726;-71
2021/01/30 03:18:30;;;;;;;0.30;0.30;;;0.90;97.20;;;5.07;77.95;100397.69;5017254;27;97494;-71
2021/01/30 03:20:57;;;;;;;1.08;1.02;;;0.90;97.20;;;5.15;77.88;100397.91;5027962;27;96865;-71
2021/01/30 03:23:28;;;;;;;0.45;0.45;;;0.90;97.20;;;5.00;78.35;100400.63;5040752;27;98654;-71
2021/01/30 03:26:04;;;;;;;0.77;0.77;;;0.90;97.20;;;5.04;77.98;100406.97;5040301;27;97250;-71
2021/01/30 03:28:32;;;;;;;0.32;0.32;;;0.90;97.20;;;5.12;77.48;100402.97;5029819;27;97126;-71
2021/01/30 03:31:00;;;;;;;6.22;1.00;;;0.90;97.20;;;5.06;78.02;100399.53;5039809;27;97756;-71
2021/01/30 03:33:30;;;;;;;1.25;1.10;;;0.90;97.20;;;5.07;77.40;100403.00;5041502;27;97749;-71
2021/01/30 03:35:58;;;;;;;3.10;0.90;;;0.90;97.20;;;4.99;77.64;100407.00;5039725;27;96694;-71
2021/01/30 03:38:26;;;;;;;1.95;1.25;;;0.90;97.20;;;5.01;77.43;100404.09;5043397;27;96911;-71
2021/01/30 03:40:54;;;;;;;0.95;0.95;;;0.80;97.20;;;4.94;77.39;100401.72;5039543;27;98408;-71
2021/01/30 03:43:21;;;;;;;1.15;1.08;;;0.80;97.40;;;4.90;78.22;100416.63;5041885;27;97748;-71
2021/01/30 03:45:49;;;;;;;1.60;1.38;;;0.80;97.40;;;4.94;77.21;100422.16;5041570;27;96843;-71
2021/01/30 03:48:17;;;;;;;0.82;0.70;;;0.80;97.20;;;4.93;78.12;100412.59;5036719;27;97585;-71
2021/01/30 03:50:45;;;;;;;0.40;0.40;;;0.80;97.20;;;4.85;78.33;100421.94;5039481;27;97768;-71
2021/01/30 03:53:13;;;;;;;0.80;0.80;;;0.80;97.20;;;4.90;78.59;100426.41;5040431;27;97708;-71
2021/01/30 03:55:42;;;;;;;1.83;1.13;;;0.80;97.20;;;4.91;78.38;100426.16;5039845;27;96692;-71
2021/01/30 03:58:11;;;;;;;1.85;1.50;;;0.80;97.20;;;4.93;78.01;100439.16;5041508;27;96891;-71
2021/01/30 04:00:39;;;;;;;4.40;1.05;;;0.80;97.20;;;4.88;78.24;100437.31;5040075;27;97525;-71
2021/01/30 04:03:06;;;;;;;0.40;0.40;;;0.80;97.20;;;4.92;78.11;100435.72;5039439;27;97740;-71
2021/01/30 04:05:34;;;;;;;0.50;0.45;;;0.80;97.20;;;4.94;78.74;100444.19;5041888;27;97147;-71
2021/01/30 04:08:04;;;;;;;4.45;0.93;;;0.80;97.20;;;4.95;77.89;100442.31;5039150;27;97198;-71
2021/01/30 04:10:36;;;;;;;0.93;0.93;;;0.80;97.20;;;4.91;78.01;100442.09;5039095;27;96757;-71
2021/01/30 04:13:10;;;;;;;1.93;0.57;;;0.80;97.20;;;4.93;78.12;100455.06;5060924;27;100057;-71
2021/01/30 04:15:42;;;;;;;0.98;0.90;;;0.80;97.20;;;4.91;78.36;100441.28;5038536;27;97472;-71
2021/01/30 04:18:11;;;;;;;1.37;1.10;;;0.80;97.10;;;4.93;78.08;100441.81;5041540;27;97153;-71
2021/01/30 04:20:40;;;;;;;0.70;0.70;;;0.80;97.10;;;4.94;77.73;100436.22;5044297;27;98084;-71
2021/01/30 04:23:10;;;;;;;0.45;0.45;;;0.80;97.10;;;4.93;78.21;100434.66;5041936;27;96843;-71
2021/01/30 04:25:38;;;;;;;2.65;0.77;;;0.80;97.10;;;4.90;78.31;100440.50;5045912;27;96900;-71
2021/01/30 04:28:07;;;;;;;0.60;0.60;;;0.80;97.10;;;4.90;78.11;100440.50;5037576;27;96790;-71
2021/01/30 04:30:34;;;;;;;0.57;0.57;;;0.80;97.20;;;4.91;78.10;100450.06;5038059;27;97894;-71
2021/01/30 04:33:06;;;;;;;2.50;1.50;;;0.80;97.20;;;4.91;78.17;100452.72;5045687;27;97427;-71
2021/01/30 04:35:36;;;;;;;0.95;0.88;;;0.80;97.10;;;4.94;77.98;100451.34;5043453;27;97264;-71
2021/01/30 04:38:06;;;;;;;0.85;0.85;;;0.80;97.10;;;4.89;78.61;100454.03;5039254;27;97279;-71
2021/01/30 04:40:38;;;;;;;0.70;0.70;;;0.80;97.10;;;4.86;78.45;100449.25;5035981;27;97156;-71
2021/01/30 04:43:20;;;;;;;0.57;0.57;;;0.80;97.10;;;4.89;77.92;100454.03;5036938;27;97746;-71
2021/01/30 04:46:07;;;;;;;5.03;0.95;;;0.80;97.10;;;4.91;78.26;100457.19;5022359;27;96736;-71
2021/01/30 04:48:55;;;;;;;1.60;1.50;;;0.80;97.10;;;4.92;78.02;100458.78;5038091;27;97368;-71
2021/01/30 04:51:34;;;;;;;1.65;1.40;;;0.80;97.10;;;4.93;78.04;100460.38;5039520;27;96757;-71
2021/01/30 04:54:40;;;;;;;3.53;1.58;;;0.70;97.10;;;4.92;77.90;100464.09;5045347;27;97212;-71
2021/01/30 04:57:37;;;;;;;0.43;0.43;;;0.80;97.10;;;4.91;78.31;100463.31;5039544;27;96905;-71
2021/01/30 05:00:36;;;;;;;0.75;0.50;;;0.80;97.10;;;4.94;78.11;100461.97;5040295;27;96925;-71
2021/01/30 05:03:47;;;;;;;1.38;0.93;;;0.80;97.20;;;4.95;78.21;100463.56;5037513;27;97788;-71
2021/01/30 05:06:30;;;;;;;1.13;0.80;;;0.80;97.20;;;4.94;78.17;100465.44;5040340;27;97646;-71
2021/01/30 05:09:04;;;;;;;;;;;0.80;97.10;;;4.93;78.44;100461.19;5047164;27;97410;-71
2021/01/30 05:11:33;;;;;;;;;;;0.80;97.20;;;4.96;78.51;100460.66;5054054;27;96887;-71
2021/01/30 05:14:11;;;;;;;0.40;0.40;;;0.80;97.20;;;4.97;78.30;100461.44;5036643;27;97901;-71
2021/01/30 05:17:05;;;;;;;0.40;0.40;;;0.80;97.20;;;4.98;78.10;100455.84;5039034;27;96750;-71
2021/01/30 05:19:43;;;;;;;2.20;1.40;;;0.80;97.20;;;4.99;78.27;100459.31;5040579;27;96649;-71
2021/01/30 05:22:16;;;;;;;2.08;1.20;;;0.80;97.20;;;5.00;78.13;100460.91;5040883;27;96870;-71
2021/01/30 05:24:44;;;;;;;2.17;1.75;;;0.80;97.20;;;5.01;77.61;100465.16;5038333;27;97046;-71
2021/01/30 05:27:38;;;;;;;0.82;0.80;;;0.90;97.20;;;4.97;77.75;100472.84;5041795;27;97181;-71
2021/01/30 05:30:16;;;;;;;0.82;0.82;;;0.80;97.20;;;4.97;77.77;100464.88;5042409;27;96754;-71
2021/01/30 05:33:20;;;;;;;0.60;0.60;;;0.80;97.20;;;4.99;78.20;100467.28;5040692;27;97359;-71
2021/01/30 05:36:00;;;;;;;1.17;1.08;;;0.80;97.20;;;5.02;78.29;100464.88;5038528;27;97999;-71
2021/01/30 05:38:55;;;;;;;0.63;0.63;;;0.90;97.20;;;5.00;78.35;100464.34;5037307;27;97784;-71
2021/01/30 05:41:42;;;;;;;1.27;1.17;;;0.80;97.20;;;5.00;78.16;100463.56;5041021;27;96878;-71
2021/01/30 05:44:19;;;;;;;1.63;1.55;;;0.90;97.20;;;5.00;78.07;100461.69;5045774;27;96905;-71
2021/01/30 05:46:52;;;;;;;5.05;2.70;;;0.90;97.20;;;5.03;78.52;100469.09;5042292;27;97052;-71
2021/01/30 05:49:33;;;;;;;1.05;1.02;;;0.90;97.20;;;5.02;78.09;100469.41;5042555;27;97662;-72
2021/01/30 05:52:11;;;;;;;3.30;1.85;;;0.90;97.20;;;5.01;78.03;100465.16;5041699;27;96675;-71
2021/01/30 05:54:38;;;;;;;1.65;1.50;;;0.90;97.20;;;5.01;78.40;100462.50;5057369;27;97380;-71
2021/01/30 05:57:08;;;;;;;1.88;1.35;;;0.90;97.20;;;5.06;77.88;100468.56;5042781;27;97529;-71
2021/01/30 05:59:37;;;;;;;2.30;2.10;;;0.90;97.20;;;5.02;78.08;100462.22;5048652;27;97572;-71
2021/01/30 06:02:16;;;;;;;0.50;0.50;;;0.90;97.20;;;5.00;78.18;100466.22;5042461;27;98936;-71
2021/01/30 06:04:44;;;;;;;6.03;1.95;;;0.90;97.20;;;5.02;78.46;100464.09;5044587;27;96854;-71
2021/01/30 06:07:34;;;;;;;0.73;0.73;;;0.90;97.20;;;4.97;78.36;100450.84;5040269;27;97931;-71
2021/01/30 06:10:31;;;;;;;0.20;0.20;;;0.90;97.20;;;4.92;78.46;100456.13;5026401;27;97743;-72
2021/01/30 06:13:15;;;;;;;0.60;0.60;;;0.90;97.10;;;4.86;78.71;100455.38;5042115;27;97182;-71
2021/01/30 06:15:47;;;;;;;0.98;0.90;;;0.90;97.10;;;4.85;78.75;100459.09;5042726;27;96875;-71
2021/01/30 06:18:37;;;;;;;3.30;2.05;;;0.80;97.10;;;4.89;78.53;100460.16;5042132;27;97198;-71
2021/01/30 06:21:17;;;;;;;2.63;1.00;;;0.90;97.10;;;4.88;78.54;100453.25;5041066;27;97988;-71
2021/01/30 06:24:07;;;;;;;1.20;0.85;;;0.80;97.10;;;4.87;79.00;100459.63;5058415;27;97266;-71
2021/01/30 06:26:43;;;;;;;3.88;2.95;;;0.80;97.10;;;4.89;78.26;100457.50;5041333;27;96850;-71
2021/01/30 06:29:34;;;;;;;0.85;0.85;;;0.90;97.10;;;4.88;78.54;100453.25;5046904;27;97874;-71
2021/01/30 06:32:23;;;;;;;0.50;0.45;;;0.80;97.10;;;4.87;78.60;100456.97;5043248;27;96754;-72
2021/01/30 06:35:09;;;;;;;0.70;0.70;;;0.80;97.10;;;4.90;78.31;100460.94;5039447;27;97193;-72
2021/01/30 06:37:48;;;;;;;1.55;1.45;;;0.80;97.10;;;4.87;78.62;100462.28;5041683;27;97506;-72
2021/01/30 06:40:23;;;;;;;4.07;1.17;;;0.80;97.10;;;4.90;78.74;100452.97;5041036;27;100695;-72
2021/01/30 06:42:55;;;;;;;0.57;0.57;;;0.80;97.10;;;4.90;78.29;100459.06;5040833;27;97651;-72
2021/01/30 06:45:36;;;;;;;1.95;1.10;;;0.80;97.10;;;4.91;78.49;100465.97;5043185;27;96669;-73
2021/01/30 06:48:08;;;;;;;1.20;1.10;;;0.80;97.10;;;4.97;78.60;100456.91;5039149;27;96805;-73
2021/01/30 06:50:42;;;;;;;1.23;1.13;;;0.80;97.10;;;4.98;78.70;100469.13;5042298;27;97586;-73
2021/01/30 06:53:19;;;;;;;0.17;0.17;;;0.80;97.10;;;4.98;78.29;100458.50;5048685;27;97028;-73
2021/01/30 06:55:46;;;;;;;0.60;0.60;;;0.80;97.10;;;4.95;78.28;100461.72;5043594;27;97339;-73
2021/01/30 06:58:26;;;;;;;0.90;0.65;;;0.80;97.10;;;4.97;78.56;100462.22;5041930;27;97512;-73
2021/01/30 07:01:09;;;;;;;1.02;1.02;;;0.80;97.10;;;4.96;77.90;100465.94;5046671;27;96920;-74
2021/01/30 07:04:22;;;;;;;4.30;1.53;;;0.80;97.10;;;4.94;78.07;100472.59;5027196;27;96879;-73
2021/01/30 07:07:06;;;;;;;1.50;1.43;;;0.80;97.10;;;4.94;78.54;100478.72;5026659;27;97325;-74
2021/01/30 07:10:14;;;;;;;2.92;1.90;;;0.80;97.10;;;4.97;78.45;100483.47;5041488;27;96736;-74
2021/01/30 07:13:04;;;;;;;0.60;0.60;;;0.80;97.40;;;5.00;78.53;100492.75;5022519;27;97281;-74
2021/01/30 07:15:37;;;;;;;0.43;0.43;;;0.80;97.10;;;4.99;77.91;100486.66;5040623;27;98886;-74
2021/01/30 07:18:28;;;;;;;;;;;0.80;97.10;;;5.01;78.19;100495.13;5042972;27;97027;-73
2021/01/30 07:21:15;;;;;;;1.95;1.70;;;0.80;97.10;;;4.99;77.62;100501.78;5040470;27;96671;-73
2021/01/30 07:24:08;;;;;;;3.15;1.33;;;0.80;97.10;;;5.05;78.04;100490.88;5037956;27;96758;-74
2021/01/30 07:26:45;;;;;;;2.30;2.15;;;0.80;97.10;;;5.01;78.56;100495.13;5040476;27;97732;-74
2021/01/30 07:29:31;;;;;;;8.82;3.00;;;0.80;97.10;;;5.02;77.85;100502.03;5039571;27;96854;-74
2021/01/30 07:32:09;;;;;;;1.65;1.48;;;0.90;97.10;;;5.09;78.11;100496.44;5046721;27;96825;-74
2021/01/30 07:34:52;;;;;;;1.85;1.33;;;0.90;97.10;;;5.10;78.33;100495.38;5041719;27;97840;-74
2021/01/30 07:37:34;;;;;;;2.33;2.13;;;0.90;97.20;;;5.15;77.61;100496.16;5021814;27;96787;-74
2021/01/30 07:40:13;;;;;;;1.23;1.20;;;0.90;97.20;;;5.20;77.68;100501.44;5042626;27;96766;-74
2021/01/30 07:42:53;;;;;;;1.85;1.35;;;0.90;97.20;;;5.24;77.78;100491.06;5044377;27;96750;-74
2021/01/30 07:45:27;;;;;;;0.90;0.90;;;1.00;97.20;;;5.31;77.31;100505.63;5044703;27;96773;-74
2021/01/30 07:48:15;;;;;;;4.95;1.00;;;1.00;97.20;;;5.33;77.59;100500.84;5039799;27;97678;-74
2021/01/30 07:50:50;;;;;;;4.00;1.95;;;1.00;97.20;;;5.30;77.52;100496.09;5043810;27;97347;-74
2021/01/30 07:53:32;;;;;;;12.65;1.55;;;1.00;97.10;;;5.35;77.56;100496.06;5045865;27;97440;-73
2021/01/30 07:56:14;;;;;;;0.98;0.98;;;1.00;97.10;;;5.39;77.65;100494.44;5038637;27;97245;-73
2021/01/30 07:59:27;;;;;;;3.40;1.42;;;1.10;97.10;;;5.41;77.39;100494.97;5056471;27;98136;-74
2021/01/30 08:02:45;;;;;;;3.78;0.93;;;1.10;97.10;;;5.60;76.93;100495.94;5042029;27;96852;-74
2021/01/30 08:06:04;;;;;;;2.08;1.05;;;1.10;97.10;;;5.65;76.76;100495.88;5031045;27;97034;-74
2021/01/30 08:08:41;;;;;;;0.98;0.88;;;1.20;97.10;;;5.65;76.97;100495.88;4966832;28;96964;-74
2021/01/30 08:11:24;;;;;;;4.13;1.80;;;1.20;97.10;;;5.70;77.45;100500.41;5041857;27;97734;-74
2021/01/30 08:14:19;;;;;;;2.08;1.98;;;1.20;97.10;;;5.66;76.55;100486.84;5045739;27;97363;-73
2021/01/30 08:17:06;;;;;;;1.13;1.02;;;1.20;97.00;;;5.66;76.61;100494.81;5041108;27;96845;-74
2021/01/30 08:19:49;;;;;;;1.52;1.20;;;1.20;97.00;;;5.58;76.77;100492.75;5039133;27;96966;-74
2021/01/30 08:22:31;;;;;;;0.55;0.55;;;1.20;96.90;;;5.63;76.37;100500.69;5042322;27;96750;-74
2021/01/30 08:25:07;;;;;;;1.67;1.53;;;1.30;96.90;;;5.69;76.81;100501.47;5041116;27;96895;-74
2021/01/30 08:27:39;;;;;;;0.95;0.77;;;1.30;96.90;;;5.51;76.79;100494.94;5037183;27;97200;-74
2021/01/30 08:30:15;;;;;;;5.97;2.22;;;1.30;96.80;;;5.53;77.11;100491.97;5042109;27;97903;-74
2021/01/30 08:32:59;;;;;;;2.40;1.35;;;1.20;96.80;;;5.50;77.34;100498.66;5039472;27;96801;-74
2021/01/30 08:35:52;;;;;;;2.25;2.05;;;1.30;96.80;;;5.51;77.01;100497.59;5043142;27;96744;-74
2021/01/30 08:38:39;;;;;;;0.93;0.93;;;1.20;96.80;;;5.55;78.03;100501.28;5036357;27;96993;-74
2021/01/30 08:41:44;;;;;;;2.58;0.90;;;1.20;96.80;;;5.56;76.96;100500.22;5039845;27;97142;-74
2021/01/30 08:44:53;;;;;;;1.75;1.50;;;1.20;96.80;;;5.53;76.86;100498.09;5027045;27;96718;-74
2021/01/30 08:47:27;;;;;;;4.05;2.25;;;1.30;96.80;;;5.54;77.60;100499.69;5043001;27;96705;-74
2021/01/30 08:50:09;;;;;;;1.30;1.20;;;1.30;96.80;;;5.49;77.59;100497.06;5037041;27;97024;-74
2021/01/30 08:52:52;;;;;;;1.33;1.23;;;1.30;96.80;;;5.45;77.76;100493.38;5040617;27;98172;-74
2021/01/30 08:55:50;;;;;;;2.50;1.90;;;1.30;96.80;;;5.47;78.09;100499.19;5039658;27;98608;-74
2021/01/30 08:58:51;;;;;;;4.93;1.13;;;1.40;96.80;;;5.46;78.54;100497.63;5043564;27;96704;-74
2021/01/30 09:01:48;;;;;;;3.30;2.35;;;1.40;96.70;;;5.47;78.30;100493.88;5036212;27;97190;-74
2021/01/30 09:05:03;;;;;;;0.70;0.70;;;1.40;96.70;;;5.44;78.64;100502.41;5044145;27;96700;-74
2021/01/30 09:07:48;;;;;;;0.77;0.70;;;1.40;96.70;;;5.47;77.23;100504.50;5036724;27;97102;-74
2021/01/30 09:10:43;;;;;;;5.10;2.58;;;1.40;96.60;;;5.56;77.75;100502.09;5036989;27;96894;-74
2021/01/30 09:13:15;;;;;;;0.30;0.30;;;1.40;96.60;;;5.58;77.17;100503.38;5043529;27;96705;-73
2021/01/30 09:16:04;;;;;;;1.88;1.65;;;1.40;96.60;;;5.59;77.73;100499.66;5007205;27;97104;-73
2021/01/30 09:18:52;;;;;;;0.85;0.85;;;1.40;96.50;;;5.63;78.17;100500.69;5044387;27;97357;-73
2021/01/30 09:22:00;;;;;;;2.05;1.63;;;1.40;96.50;;;5.70;77.24;100500.41;5063048;27;97288;-73
2021/01/30 09:25:14;;;;;;;0.52;0.52;;;1.50;96.60;;;5.77;77.17;100504.34;5042745;27;96912;-73
2021/01/30 09:27:56;;;;;;;2.70;1.73;;;1.50;96.60;;;5.81;76.91;100497.44;5040324;27;97575;-73
2021/01/30 09:30:38;;;;;;;0.80;0.75;;;1.60;96.50;;;5.82;77.33;100493.69;5044459;27;97924;-74
2021/01/30 09:33:22;;;;;;;1.00;0.95;;;1.60;96.50;;;5.84;77.08;100494.22;5044938;27;96987;-74
2021/01/30 09:35:51;;;;;;;1.55;1.23;;;1.60;96.40;;;5.91;77.40;100492.03;5044917;27;97303;-73
2021/01/30 09:38:26;;;;;;;1.33;1.20;;;1.60;96.40;;;6.00;77.06;100487.72;5036144;27;97819;-73
2021/01/30 09:41:20;;;;;;;6.47;2.25;;;1.70;96.40;;;6.03;77.07;100487.19;5037528;27;98194;-73
2021/01/30 09:43:49;;;;;;;0.43;0.43;;;1.70;96.60;;;6.02;77.46;100490.91;5044565;27;97020;-73
2021/01/30 09:46:24;;;;;;;2.70;2.50;;;1.80;96.40;;;6.05;77.40;100490.34;5038776;27;97262;-73
2021/01/30 09:48:52;;;;;;;2.28;1.02;;;1.80;96.30;;;6.07;76.90;100496.19;5045194;27;97817;-73
2021/01/30 09:51:20;;;;;;;3.60;1.42;;;1.80;96.30;;;6.11;76.73;100486.56;5033778;27;98464;-73
2021/01/30 09:53:56;;;;;;;3.47;1.98;;;1.90;96.30;;;6.18;77.30;100494.25;5039727;27;97381;-73
2021/01/30 09:56:25;;;;;;;3.63;2.42;;;1.90;96.20;;;6.31;76.26;100499.72;5044689;27;96705;-73
2021/01/30 09:58:57;;;;;;;3.00;1.50;;;2.00;96.20;;;6.46;76.51;100494.25;5051955;27;100334;-73
2021/01/30 10:01:32;;;;;;;2.38;1.42;;;2.00;96.10;;;6.53;76.49;100486.72;5038670;27;98923;-73
2021/01/30 10:04:20;;;;;;;1.00;1.00;;;2.10;96.10;;;6.66;75.93;100481.53;5037908;27;97137;-73
2021/01/30 10:06:51;;;;;;;1.42;1.33;;;2.20;96.20;;;6.84;75.22;100482.69;5040426;27;97491;-74
2021/01/30 10:09:24;;;;;;;1.08;0.90;;;2.30;95.90;;;7.12;75.33;100487.97;5038272;27;97816;-73
2021/01/30 10:11:56;;;;;;;0.65;0.65;;;2.40;96.10;;;7.48;74.09;100482.97;5043237;27;97875;-73
2021/01/30 10:14:34;;;;;;;0.65;0.65;;;2.60;95.80;;;8.00;72.35;100480.88;5044262;27;97786;-73
2021/01/30 10:17:08;;;;;;;0.50;0.50;;;2.80;95.70;;;8.11;72.28;100479.63;5041201;27;97309;-73
2021/01/30 10:19:38;;;;;;;3.10;1.73;;;3.10;95.30;;;8.02;72.76;100478.72;5043960;27;97957;-73
2021/01/30 10:22:18;;;;;;;0.55;0.52;;;3.20;95.00;;;7.93;73.38;100480.44;5036971;27;96863;-73
2021/01/30 10:24:48;;;;;;;2.60;1.40;;;3.30;94.80;;;7.85;73.51;100484.56;5040892;27;97138;-74
2021/01/30 10:27:22;;;;;;;6.22;1.52;;;3.30;94.70;;;7.74;74.57;100488.44;5043824;27;97018;-74
2021/01/30 10:29:55;;;;;;;4.93;1.42;;;3.30;94.60;;;7.56;74.53;100485.78;5018129;27;97960;-74
2021/01/30 10:32:42;;;;;;;1.88;1.77;;;3.30;94.60;;;7.41;74.78;100480.66;5046509;27;97556;-74
2021/01/30 10:35:22;;;;;;;8.40;1.80;;;3.20;94.60;;;7.22;74.71;100487.84;5043200;27;97705;-74
2021/01/30 10:37:56;;;;;;;1.08;1.00;;;3.10;94.60;;;7.26;75.52;100490.72;5039798;27;96913;-74
2021/01/30 10:40:34;;;;;;;2.20;1.05;;;3.00;94.70;;;7.25;74.55;100489.16;5033931;27;97867;-74
2021/01/30 10:43:09;;;;;;;1.65;1.10;;;3.00;94.70;;;7.25;75.22;100473.94;5043946;27;97804;-74
2021/01/30 10:45:44;;;;;;;1.05;0.98;;;2.90;94.70;;;7.49;74.90;100477.34;5038591;27;97021;-74
2021/01/30 10:48:15;;;;;;;2.35;1.40;;;3.00;94.90;;;7.90;74.17;100476.50;5041762;27;97380;-74
2021/01/30 10:50:46;;;;;;;0.75;0.75;;;3.10;95.00;;;8.57;72.21;100470.59;5036981;27;97938;-74
2021/01/30 10:53:34;;;;;;;1.42;1.35;;;3.40;95.00;;;9.15;70.37;100473.47;5039150;27;97742;-74
2021/01/30 10:56:21;;;;;;;1.65;1.55;;;3.70;94.90;;;9.36;70.16;100475.44;5038594;27;97302;-74
2021/01/30 10:58:51;;;;;;;10.00;3.58;;;4.00;94.60;;;9.31;70.84;100475.56;5025393;27;97063;-74
2021/01/30 11:01:31;;;;;;;7.35;2.20;;;4.30;94.30;;;9.15;71.40;100474.28;5038877;27;98620;-74
2021/01/30 11:04:06;;;;;;;3.13;1.65;;;4.30;94.00;;;8.87;72.68;100464.69;5047095;27;97901;-74
2021/01/30 11:06:45;;;;;;;1.73;1.35;;;4.30;93.90;;;8.57;73.81;100467.91;5044025;27;96887;-74
2021/01/30 11:09:22;;;;;;;4.78;2.53;;;4.30;93.80;;;8.27;74.53;100465.78;5057685;27;96983;-74
2021/01/30 11:12:09;;;;;;;4.32;1.75;;;4.10;93.80;;;8.15;74.72;100468.09;5038090;27;98399;-75
2021/01/30 11:14:39;;;;;;;4.40;1.70;;;4.00;93.90;;;8.23;74.61;100469.31;5039143;27;97271;-74
2021/01/30 11:17:26;;;;;;;1.92;1.30;;;3.90;94.10;;;8.35;74.72;100462.44;5043473;27;96974;-74